createdAt,value
2023-05-12T00:01:17.072Z,2.63
2023-05-12T00:03:44.172Z,2.47
2023-05-12T00:06:11.210Z,2.58
2023-05-12T00:08:37.662Z,2.47
2023-05-12T00:11:04.484Z,3.00
2023-05-12T00:13:31.067Z,2.85
2023-05-12T00:15:58.775Z,2.60
2023-05-12T00:18:26.852Z,2.72
2023-05-12T00:20:54.970Z,2.40
2023-05-12T00:23:22.144Z,2.47
2023-05-12T00:25:49.158Z,2.72
2023-05-12T00:28:15.664Z,3.00
2023-05-12T00:30:42.032Z,3.17
2023-05-12T00:33:08.800Z,2.50
2023-05-12T00:35:35.160Z,2.97
2023-05-12T00:38:01.991Z,2.80
2023-05-12T00:40:28.356Z,2.72
2023-05-12T00:42:54.672Z,3.30
2023-05-12T00:45:22.197Z,2.85
2023-05-12T00:47:51.468Z,2.65
2023-05-12T00:50:18.816Z,3.30
2023-05-12T00:52:46.683Z,3.38
2023-05-12T00:55:13.117Z,3.63
2023-05-12T00:57:40.799Z,3.05
2023-05-12T01:00:07.856Z,3.03
2023-05-12T01:02:34.356Z,3.13
2023-05-12T01:05:01.407Z,2.58
2023-05-12T01:07:32.199Z,3.00
2023-05-12T01:09:59.252Z,2.65
2023-05-12T01:12:26.915Z,2.78
2023-05-12T01:14:55.686Z,2.97
2023-05-12T01:17:32.419Z,3.50
2023-05-12T01:20:01.602Z,3.08
2023-05-12T01:22:33.987Z,3.35
2023-05-12T01:25:05.763Z,3.30
2023-05-12T01:30:19.906Z,3.22
2023-05-12T01:32:46.571Z,3.33
2023-05-12T01:35:13.309Z,3.33
2023-05-12T01:37:39.633Z,3.10
2023-05-12T01:40:06.462Z,3.17
2023-05-12T01:42:33.283Z,3.28
2023-05-12T01:44:59.592Z,3.70
2023-05-12T01:47:25.958Z,3.75
2023-05-12T01:49:54.856Z,3.63
2023-05-12T01:52:21.182Z,3.67
2023-05-12T01:54:47.517Z,3.80
2023-05-12T01:57:14.328Z,3.40
2023-05-12T01:59:40.657Z,3.67
2023-05-12T02:02:07.161Z,3.85
2023-05-12T02:04:34.822Z,3.28
2023-05-12T02:07:01.804Z,3.17
2023-05-12T02:09:28.130Z,3.53
2023-05-12T02:11:54.851Z,4.00
2023-05-12T02:14:21.264Z,3.50
2023-05-12T02:16:52.366Z,3.22
2023-05-12T02:19:22.038Z,3.72
2023-05-12T02:21:48.807Z,3.30
2023-05-12T02:24:16.503Z,3.70
2023-05-12T02:26:43.290Z,3.58
2023-05-12T02:29:10.816Z,4.03
2023-05-12T02:31:37.219Z,3.70
2023-05-12T02:34:06.614Z,3.28
2023-05-12T02:36:33.252Z,3.42
2023-05-12T02:38:59.574Z,2.95
2023-05-12T02:41:26.324Z,3.20
2023-05-12T02:43:53.552Z,2.97
2023-05-12T02:46:20.105Z,3.80
2023-05-12T02:48:47.314Z,3.22
2023-05-12T02:51:13.688Z,3.28
2023-05-12T02:53:40.252Z,3.03
2023-05-12T02:56:07.264Z,3.15
2023-05-12T02:58:34.186Z,3.00
2023-05-12T03:01:09.824Z,2.70
2023-05-12T03:03:38.174Z,3.22
2023-05-12T03:06:05.172Z,3.10
2023-05-12T03:08:31.649Z,3.08
2023-05-12T03:10:59.003Z,3.63
2023-05-12T03:13:25.428Z,2.78
2023-05-12T03:15:51.786Z,3.22
2023-05-12T03:18:18.594Z,3.30
2023-05-12T03:20:45.631Z,2.90
2023-05-12T03:23:12.068Z,3.08
2023-05-12T03:25:38.374Z,3.10
2023-05-12T03:28:05.672Z,3.28
2023-05-12T03:30:32.977Z,3.20
2023-05-12T03:32:59.859Z,2.88
2023-05-12T03:35:26.340Z,3.25
2023-05-12T03:37:52.997Z,3.28
2023-05-12T03:40:19.605Z,3.72
2023-05-12T03:42:46.164Z,3.33
2023-05-12T03:45:13.186Z,3.15
2023-05-12T03:47:40.545Z,3.25
2023-05-12T03:50:08.100Z,3.33
2023-05-12T03:52:34.638Z,3.47
2023-05-12T03:55:00.976Z,3.60
2023-05-12T03:57:27.305Z,3.60
2023-05-12T03:59:54.006Z,3.63
2023-05-12T04:02:20.464Z,4.55
2023-05-12T04:04:46.860Z,4.00
2023-05-12T04:07:13.593Z,3.78
2023-05-12T04:09:40.027Z,4.00
2023-05-12T04:12:07.204Z,4.38
2023-05-12T04:14:42.166Z,4.38
2023-05-12T04:17:10.032Z,3.97
2023-05-12T04:19:36.402Z,4.65
2023-05-12T04:22:02.702Z,4.80
2023-05-12T04:24:29.548Z,4.57
2023-05-12T04:26:57.531Z,4.93
2023-05-12T04:29:23.867Z,5.38
2023-05-12T04:31:50.608Z,4.78
2023-05-12T04:34:17.023Z,4.93
2023-05-12T04:36:43.924Z,4.80
2023-05-12T04:39:10.243Z,5.05
2023-05-12T04:41:36.807Z,4.72
2023-05-12T04:44:03.775Z,4.68
2023-05-12T04:46:30.149Z,4.80
2023-05-12T04:48:56.597Z,4.32
2023-05-12T04:51:23.397Z,4.78
2023-05-12T04:53:49.729Z,4.47
2023-05-12T04:56:16.521Z,4.30
2023-05-12T04:58:42.922Z,4.97
2023-05-12T05:01:09.384Z,4.10
2023-05-12T05:03:36.321Z,4.80
2023-05-12T05:06:02.717Z,4.35
2023-05-12T05:08:29.045Z,4.28
2023-05-12T05:10:55.730Z,4.57
2023-05-12T05:13:22.048Z,4.45
2023-05-12T05:15:52.444Z,4.38
2023-05-12T05:18:20.571Z,4.88
2023-05-12T05:23:16.956Z,4.68
2023-05-12T05:25:43.852Z,4.47
2023-05-12T05:28:10.199Z,4.47
2023-05-12T05:30:36.574Z,5.03
2023-05-12T05:33:03.281Z,4.85
2023-05-12T05:35:31.258Z,4.28
2023-05-12T05:37:57.608Z,4.00
2023-05-12T05:40:24.594Z,4.25
2023-05-12T05:42:51.461Z,4.28
2023-05-12T05:45:17.938Z,3.80
2023-05-12T05:47:44.513Z,3.63
2023-05-12T05:50:11.389Z,3.50
2023-05-12T05:52:37.739Z,3.38
2023-05-12T05:55:05.108Z,3.03
2023-05-12T05:57:31.434Z,3.00
2023-05-12T05:59:57.760Z,3.22
2023-05-12T06:02:24.623Z,3.03
2023-05-12T06:04:52.333Z,3.22
2023-05-12T06:07:20.040Z,2.63
2023-05-12T06:09:48.210Z,2.88
2023-05-12T06:12:14.548Z,3.00
2023-05-12T06:14:40.898Z,2.92
2023-05-12T06:17:07.565Z,2.90
2023-05-12T06:19:34.491Z,3.13
2023-05-12T06:22:00.899Z,3.70
2023-05-12T06:24:27.215Z,2.03
2023-05-12T06:26:54.154Z,1.67
2023-05-12T06:29:21.222Z,1.70
2023-05-12T06:31:48.047Z,1.52
2023-05-12T06:34:14.688Z,0.98
2023-05-12T06:36:41.387Z,0.75
2023-05-12T06:39:07.872Z,0.90
2023-05-12T06:41:34.206Z,1.23
2023-05-12T06:44:02.732Z,1.05
2023-05-12T06:46:29.165Z,1.08
2023-05-12T06:48:55.618Z,1.40
2023-05-12T06:51:22.696Z,1.40
2023-05-12T06:53:49.113Z,1.20
2023-05-12T06:56:17.027Z,1.30
2023-05-12T06:58:44.353Z,1.25
2023-05-12T07:01:11.309Z,1.35
2023-05-12T07:03:37.746Z,1.20
2023-05-12T07:06:04.632Z,1.08
2023-05-12T07:08:31.636Z,1.20
2023-05-12T07:11:00.852Z,1.20
2023-05-12T07:13:27.791Z,1.25
2023-05-12T07:15:54.538Z,1.60
2023-05-12T07:18:21.273Z,1.50
2023-05-12T07:20:47.744Z,1.63
2023-05-12T07:23:14.107Z,1.67
2023-05-12T07:25:40.966Z,1.60
2023-05-12T07:28:07.467Z,1.35
2023-05-12T07:30:33.836Z,1.63
2023-05-12T07:33:01.732Z,1.60
2023-05-12T07:35:28.329Z,2.17
2023-05-12T07:37:54.704Z,1.90
2023-05-12T07:40:21.533Z,1.88
2023-05-12T07:42:48.430Z,1.70
2023-05-12T07:45:22.699Z,2.00
2023-05-12T07:47:51.102Z,1.55
2023-05-12T07:50:18.478Z,1.75
2023-05-12T07:52:50.694Z,1.65
2023-05-12T07:55:18.818Z,1.50
2023-05-12T07:57:45.802Z,2.05
2023-05-12T08:00:13.625Z,1.75
2023-05-12T08:02:41.338Z,1.92
2023-05-12T08:05:11.158Z,1.80
2023-05-12T08:07:38.986Z,1.67
2023-05-12T08:10:06.392Z,1.20
2023-05-12T08:12:33.564Z,1.40
2023-05-12T08:15:00.400Z,1.70
2023-05-12T08:17:29.050Z,1.90
2023-05-12T08:19:55.664Z,2.58
2023-05-12T08:22:22.358Z,1.70
2023-05-12T08:24:48.736Z,1.85
2023-05-12T08:27:15.073Z,1.75
2023-05-12T08:29:41.893Z,1.92
2023-05-12T08:32:08.736Z,1.55
2023-05-12T08:34:35.157Z,2.13
2023-05-12T08:37:01.997Z,2.00
2023-05-12T08:39:30.967Z,1.80
2023-05-12T08:42:13.978Z,1.80
2023-05-12T08:44:40.804Z,1.30
2023-05-12T08:47:08.495Z,1.33
2023-05-12T08:49:36.645Z,1.20
2023-05-12T08:52:03.498Z,1.27
2023-05-12T08:54:30.285Z,1.30
2023-05-12T08:59:27.029Z,1.20
2023-05-12T09:01:54.784Z,1.08
2023-05-12T09:04:21.205Z,1.27
2023-05-12T09:06:48.346Z,1.20
2023-05-12T09:09:17.804Z,0.80
2023-05-12T09:11:45.026Z,1.10
2023-05-12T09:14:25.507Z,1.15
2023-05-12T09:17:01.337Z,0.85
2023-05-12T09:19:28.195Z,0.90
2023-05-12T09:21:54.629Z,1.10
2023-05-12T09:24:22.387Z,1.00
2023-05-12T09:26:52.293Z,1.20
2023-05-12T09:29:30.775Z,1.33
2023-05-12T09:32:03.548Z,1.20
2023-05-12T09:34:41.006Z,1.17
2023-05-12T09:37:08.334Z,1.33
2023-05-12T09:39:35.141Z,1.02
2023-05-12T09:42:01.833Z,0.95
2023-05-12T09:44:31.279Z,1.05
2023-05-12T09:47:06.583Z,1.08
2023-05-12T09:49:33.519Z,1.10
2023-05-12T09:52:00.279Z,0.85
2023-05-12T09:54:28.597Z,1.00
2023-05-12T09:57:00.463Z,1.00
2023-05-12T09:59:36.567Z,1.40
2023-05-12T10:02:06.615Z,1.60
2023-05-12T10:04:41.687Z,2.03
2023-05-12T10:07:12.149Z,1.80
2023-05-12T10:09:42.205Z,2.10
2023-05-12T10:12:10.124Z,2.20
2023-05-12T10:14:38.353Z,2.35
2023-05-12T10:17:06.831Z,2.20
2023-05-12T10:19:35.738Z,1.70
2023-05-12T10:22:03.798Z,1.40
2023-05-12T10:24:30.519Z,1.70
2023-05-12T10:26:58.075Z,1.52
2023-05-12T10:29:30.157Z,1.50
2023-05-12T10:31:57.752Z,1.48
2023-05-12T10:34:40.201Z,1.63
2023-05-12T10:37:10.786Z,1.73
2023-05-12T10:39:46.725Z,1.30
2023-05-12T10:42:17.021Z,0.90
2023-05-12T10:44:54.313Z,1.30
2023-05-12T10:47:27.322Z,1.20
2023-05-12T10:50:00.085Z,1.25
2023-05-12T10:52:26.490Z,1.40
2023-05-12T10:55:04.388Z,1.80
2023-05-12T10:57:33.028Z,1.50
2023-05-12T11:00:01.535Z,1.48
2023-05-12T11:02:36.154Z,1.58
2023-05-12T11:05:12.905Z,1.52
2023-05-12T11:07:41.203Z,1.63
2023-05-12T11:10:08.841Z,1.63
2023-05-12T11:12:35.874Z,1.60
2023-05-12T11:15:04.532Z,1.50
2023-05-12T11:17:31.725Z,1.80
2023-05-12T11:19:58.474Z,1.67
2023-05-12T11:22:25.187Z,1.73
2023-05-12T11:24:52.701Z,1.27
2023-05-12T11:27:21.126Z,1.27
2023-05-12T11:30:02.617Z,1.30
2023-05-12T11:32:30.286Z,1.35
2023-05-12T11:35:09.773Z,1.30
2023-05-12T11:37:39.200Z,1.65
2023-05-12T11:40:26.113Z,1.52
2023-05-12T11:42:55.113Z,1.98
2023-05-12T11:45:28.547Z,1.60
2023-05-12T11:48:11.710Z,2.00
2023-05-12T11:50:40.543Z,2.00
2023-05-12T11:53:11.861Z,2.10
2023-05-12T11:55:38.278Z,1.80
2023-05-12T11:58:04.743Z,2.15
2023-05-12T12:00:35.817Z,2.50
2023-05-12T12:03:10.164Z,2.90
2023-05-12T12:05:38.069Z,2.80
2023-05-12T12:08:06.609Z,2.67
2023-05-12T12:10:32.993Z,2.58
2023-05-12T12:13:01.816Z,2.53
2023-05-12T12:15:29.211Z,2.40
2023-05-12T12:17:55.659Z,2.70
2023-05-12T12:20:24.905Z,2.80
2023-05-12T12:22:52.529Z,3.63
2023-05-12T12:25:20.347Z,2.85
2023-05-12T12:27:48.555Z,3.78
2023-05-12T12:30:16.868Z,3.72
2023-05-12T12:32:44.097Z,3.00
2023-05-12T12:35:11.429Z,3.80
2023-05-12T12:37:37.852Z,3.83
2023-05-12T12:40:08.129Z,3.83
2023-05-12T12:42:36.325Z,3.90
2023-05-12T12:45:06.630Z,4.88
2023-05-12T12:47:33.007Z,4.75
2023-05-12T12:50:00.101Z,4.13
2023-05-12T12:52:26.802Z,4.43
2023-05-12T12:54:53.203Z,3.50
2023-05-12T12:57:21.426Z,4.40
2023-05-12T12:59:48.193Z,3.75
2023-05-12T13:02:14.753Z,4.95
2023-05-12T13:04:41.725Z,4.47
2023-05-12T13:07:08.126Z,4.85
2023-05-12T13:09:34.491Z,4.35
2023-05-12T13:12:01.481Z,4.47
2023-05-12T13:14:27.911Z,4.38
2023-05-12T13:16:54.295Z,4.15
2023-05-12T13:19:22.076Z,5.13
2023-05-12T13:21:49.465Z,3.88
2023-05-12T13:24:15.877Z,4.82
2023-05-12T13:26:42.583Z,4.82
2023-05-12T13:29:08.914Z,4.80
2023-05-12T13:31:35.371Z,5.22
2023-05-12T13:34:02.213Z,4.47
2023-05-12T13:36:29.444Z,4.25
2023-05-12T13:38:55.787Z,4.38
2023-05-12T13:41:22.640Z,3.72
2023-05-12T13:43:49.015Z,4.72
2023-05-12T13:46:15.506Z,4.75
2023-05-12T13:48:41.888Z,4.30
2023-05-12T13:51:08.328Z,4.20
2023-05-12T13:53:37.544Z,4.15
2023-05-12T13:56:04.015Z,4.55
2023-05-12T13:58:30.729Z,4.10
2023-05-12T14:00:57.195Z,4.78
2023-05-12T14:03:23.519Z,4.10
2023-05-12T14:05:50.186Z,4.25
2023-05-12T14:08:16.508Z,4.35
2023-05-12T14:10:42.950Z,4.60
2023-05-12T14:13:09.833Z,3.53
2023-05-12T14:15:47.989Z,4.07
2023-05-12T14:18:16.131Z,4.60
2023-05-12T14:20:42.736Z,4.40
2023-05-12T14:23:09.088Z,4.50
2023-05-12T14:25:35.586Z,3.78
2023-05-12T14:28:03.006Z,4.03
2023-05-12T14:30:29.742Z,4.00
2023-05-12T14:32:56.240Z,4.43
2023-05-12T14:35:27.821Z,4.60
2023-05-12T14:37:55.602Z,3.47
2023-05-12T14:40:23.310Z,3.78
2023-05-12T14:42:49.629Z,5.10
2023-05-12T14:45:16.516Z,4.25
2023-05-12T14:47:43.673Z,4.70
2023-05-12T14:50:11.124Z,4.40
2023-05-12T14:52:40.083Z,4.10
2023-05-12T14:55:11.943Z,4.75
2023-05-12T14:57:39.786Z,4.20
2023-05-12T15:00:08.616Z,3.50
2023-05-12T15:02:35.097Z,3.95
2023-05-12T15:05:01.988Z,3.85
2023-05-12T15:07:28.389Z,3.83
2023-05-12T15:09:54.718Z,3.90
2023-05-12T15:12:22.515Z,5.47
2023-05-12T15:14:48.842Z,2.95
2023-05-12T15:17:15.930Z,4.25
2023-05-12T15:19:42.457Z,4.60
2023-05-12T15:22:09.020Z,4.32
2023-05-12T15:24:35.903Z,4.10
2023-05-12T15:27:02.228Z,3.88
2023-05-12T15:29:28.762Z,4.53
2023-05-12T15:31:55.485Z,4.40
2023-05-12T15:34:22.150Z,4.38
2023-05-12T15:36:48.824Z,4.13
2023-05-12T15:39:16.356Z,4.35
2023-05-12T15:41:43.493Z,4.68
2023-05-12T15:44:09.845Z,3.90
2023-05-12T15:46:37.756Z,5.03
2023-05-12T15:49:04.118Z,4.15
2023-05-12T15:51:31.294Z,4.35
2023-05-12T15:53:58.198Z,3.95
2023-05-12T15:56:24.961Z,3.83
2023-05-12T15:58:51.756Z,5.45
2023-05-12T16:01:18.140Z,3.80
2023-05-12T16:03:45.734Z,4.78
2023-05-12T16:06:12.244Z,4.80
2023-05-12T16:08:38.639Z,4.32
2023-05-12T16:11:05.768Z,4.43
2023-05-12T16:13:32.179Z,5.25
2023-05-12T16:15:58.621Z,3.45
2023-05-12T16:18:25.696Z,4.18
2023-05-12T16:20:52.056Z,4.50
2023-05-12T16:23:18.409Z,4.63
2023-05-12T16:25:45.550Z,6.38
2023-05-12T16:28:11.971Z,3.70
2023-05-12T16:30:38.699Z,3.70
2023-05-12T16:33:06.973Z,3.40
2023-05-12T16:35:33.689Z,3.92
2023-05-12T16:38:00.470Z,3.38
2023-05-12T16:40:27.278Z,3.45
2023-05-12T16:42:55.751Z,3.30
2023-05-12T16:45:23.222Z,3.47
2023-05-12T16:47:51.528Z,3.47
2023-05-12T16:50:18.042Z,3.00
2023-05-12T16:52:44.372Z,3.72
2023-05-12T16:55:11.421Z,3.30
2023-05-12T16:57:37.803Z,3.60
2023-05-12T17:00:06.476Z,2.80
2023-05-12T17:02:33.854Z,3.70
2023-05-12T17:05:00.384Z,3.13
2023-05-12T17:07:26.820Z,3.53
2023-05-12T17:09:53.670Z,3.15
2023-05-12T17:12:19.992Z,2.88
2023-05-12T17:14:53.165Z,2.72
2023-05-12T17:17:30.468Z,2.78
2023-05-12T17:19:56.926Z,3.00
2023-05-12T17:22:23.315Z,2.80
2023-05-12T17:24:50.366Z,9.63
2023-05-12T17:27:16.777Z,4.30
2023-05-12T17:29:43.149Z,2.50
2023-05-12T17:32:09.774Z,2.50
2023-05-12T17:34:36.138Z,2.30
2023-05-12T17:37:04.479Z,3.13
2023-05-12T17:39:31.695Z,2.60
2023-05-12T17:41:59.045Z,4.75
2023-05-12T17:44:25.576Z,1.83
2023-05-12T17:46:52.288Z,2.42
2023-05-12T17:49:18.646Z,1.90
2023-05-12T17:51:44.982Z,2.75
2023-05-12T17:54:11.756Z,2.40
2023-05-12T17:56:38.281Z,2.25
2023-05-12T17:59:04.673Z,2.00
2023-05-12T18:01:31.420Z,2.10
2023-05-12T18:03:58.061Z,2.40
2023-05-12T18:06:24.396Z,1.98
2023-05-12T18:08:51.138Z,2.05
2023-05-12T18:11:17.482Z,2.88
2023-05-12T18:13:43.872Z,2.28
2023-05-12T18:16:18.242Z,2.30
2023-05-12T18:18:54.386Z,1.70
2023-05-12T18:21:21.264Z,2.20
2023-05-12T18:23:47.621Z,1.75
2023-05-12T18:26:14.017Z,2.28
2023-05-12T18:28:41.408Z,1.80
2023-05-12T18:31:15.842Z,1.80
2023-05-12T18:36:10.055Z,1.83
2023-05-12T18:38:36.414Z,2.22
2023-05-12T18:41:03.394Z,2.50
2023-05-12T18:43:29.812Z,2.75
2023-05-12T18:45:56.213Z,3.08
2023-05-12T18:48:23.009Z,2.25
2023-05-12T18:50:49.558Z,2.17
2023-05-12T18:53:15.903Z,2.63
2023-05-12T18:55:43.212Z,3.28
2023-05-12T18:58:09.644Z,2.60
2023-05-12T19:00:36.013Z,2.83
2023-05-12T19:03:03.409Z,2.30
2023-05-12T19:05:30.252Z,2.60
2023-05-12T19:07:57.348Z,4.07
2023-05-12T19:10:23.684Z,3.42
2023-05-12T19:12:50.942Z,3.40
2023-05-12T19:15:18.205Z,2.30
2023-05-12T19:17:44.703Z,2.00
2023-05-12T19:20:11.337Z,2.60
2023-05-12T19:22:38.187Z,2.60
2023-05-12T19:25:05.907Z,2.35
2023-05-12T19:27:32.794Z,2.10
2023-05-12T19:30:02.547Z,1.98
2023-05-12T19:32:29.010Z,1.90
2023-05-12T19:34:55.861Z,2.20
2023-05-12T19:37:22.785Z,2.03
2023-05-12T19:39:50.031Z,2.35
2023-05-12T19:42:16.344Z,2.03
2023-05-12T19:44:43.082Z,2.17
2023-05-12T19:47:09.461Z,2.30
2023-05-12T19:49:36.610Z,1.95
2023-05-12T19:52:04.488Z,1.98
2023-05-12T19:54:31.316Z,2.20
2023-05-12T19:56:57.864Z,2.40
2023-05-12T19:59:24.668Z,1.73
2023-05-12T20:01:51.767Z,2.03
2023-05-12T20:04:18.150Z,2.20
2023-05-12T20:06:44.604Z,18.55
2023-05-12T20:09:11.359Z,2.72
2023-05-12T20:11:37.691Z,2.08
2023-05-12T20:14:04.029Z,1.88
2023-05-12T20:16:30.503Z,1.85
2023-05-12T20:18:57.639Z,1.98
2023-05-12T20:21:24.536Z,1.80
2023-05-12T20:23:50.885Z,2.13
2023-05-12T20:26:17.257Z,1.58
2023-05-12T20:28:43.722Z,1.77
2023-05-12T20:31:10.203Z,2.25
2023-05-12T20:33:36.965Z,2.30
2023-05-12T20:36:03.792Z,1.90
2023-05-12T20:38:30.801Z,1.95
2023-05-12T20:41:03.788Z,1.88
2023-05-12T20:43:30.281Z,2.20
2023-05-12T20:45:56.839Z,1.70
2023-05-12T20:48:23.241Z,2.00
2023-05-12T20:50:50.104Z,1.10
2023-05-12T20:53:16.669Z,1.52
2023-05-12T20:55:43.078Z,2.00
2023-05-12T20:58:10.271Z,1.95
2023-05-12T21:00:37.155Z,1.70
2023-05-12T21:03:05.453Z,2.10
2023-05-12T21:05:32.885Z,1.65
2023-05-12T21:07:59.464Z,1.58
2023-05-12T21:10:25.821Z,1.83
2023-05-12T21:12:52.162Z,1.80
2023-05-12T21:15:18.598Z,1.63
2023-05-12T21:17:44.963Z,1.92
2023-05-12T21:20:12.490Z,2.10
2023-05-12T21:22:40.645Z,2.20
2023-05-12T21:25:07.449Z,2.28
2023-05-12T21:27:34.902Z,1.85
2023-05-12T21:30:01.253Z,2.80
2023-05-12T21:32:27.754Z,2.60
2023-05-12T21:34:54.976Z,2.40
2023-05-12T21:37:21.440Z,2.38
2023-05-12T21:39:47.776Z,2.47
2023-05-12T21:42:14.786Z,2.35
2023-05-12T21:44:41.180Z,2.40
2023-05-12T21:47:08.482Z,3.03
2023-05-12T21:49:35.349Z,2.20
2023-05-12T21:52:01.759Z,2.53
2023-05-12T21:54:28.225Z,2.53
2023-05-12T21:56:55.065Z,2.55
2023-05-12T21:59:21.446Z,2.50
2023-05-12T22:01:47.880Z,2.00
2023-05-12T22:04:15.551Z,2.35
2023-05-12T22:06:42.140Z,2.67
2023-05-12T22:09:08.459Z,2.50
2023-05-12T22:11:35.338Z,2.45
2023-05-12T22:14:02.103Z,2.40
2023-05-12T22:16:40.672Z,2.38
2023-05-12T22:19:08.617Z,2.00
2023-05-12T22:21:35.061Z,2.42
2023-05-12T22:24:01.429Z,2.20
2023-05-12T22:26:28.128Z,1.90
2023-05-12T22:28:54.631Z,2.60
2023-05-12T22:31:21.289Z,2.28
2023-05-12T22:33:48.307Z,2.42
2023-05-12T22:36:15.271Z,2.15
2023-05-12T22:38:41.633Z,2.75
2023-05-12T22:41:08.401Z,2.72
2023-05-12T22:43:34.745Z,2.90
2023-05-12T22:46:01.133Z,3.00
2023-05-12T22:48:28.027Z,3.40
2023-05-12T22:50:54.994Z,3.35
2023-05-12T22:53:21.324Z,3.00
2023-05-12T22:55:48.418Z,3.42
2023-05-12T22:58:14.750Z,2.75
2023-05-12T23:00:41.116Z,3.15
2023-05-12T23:03:08.108Z,2.55
2023-05-12T23:05:34.463Z,2.70
2023-05-12T23:08:02.765Z,3.10
2023-05-12T23:10:29.627Z,3.00
2023-05-12T23:12:56.028Z,2.40
2023-05-12T23:15:22.362Z,2.40
2023-05-12T23:17:49.127Z,2.97
2023-05-12T23:20:15.635Z,2.42
2023-05-12T23:22:42.017Z,2.65
2023-05-12T23:25:09.561Z,2.22
2023-05-12T23:27:36.627Z,2.17
2023-05-12T23:30:03.348Z,2.30
2023-05-12T23:32:30.229Z,2.05
2023-05-12T23:34:56.623Z,2.28
2023-05-12T23:37:24.462Z,1.80
2023-05-12T23:39:51.333Z,1.98
2023-05-12T23:42:17.715Z,2.00
2023-05-12T23:44:44.413Z,1.95
2023-05-12T23:47:10.768Z,1.90
2023-05-12T23:49:37.119Z,1.90
2023-05-12T23:52:03.998Z,1.45
2023-05-12T23:54:30.318Z,1.80
2023-05-12T23:56:56.651Z,1.80
2023-05-12T23:59:23.862Z,2.30
